Time;durP1;ratioP1;P1;durP2;ratioP2;P2;SDS_P1;SDS_P2;PMS_P1;PMS_P2;Temp;Humidity;BMP_temperature;BMP_pressure;BME280_temperature;BME280_humidity;BME280_pressure;Samples;Min_cycle;Max_cycle;Signal;HPM_P1;HPM_P2
2021/09/07 00:00:46;;;;;;;0.10;0.10;;;19.80;58.20;;;;;;5009414;28;20287;-84
2021/09/07 00:03:14;;;;;;;4.43;0.70;;;19.80;58.80;;;;;;5004847;28;20710;-83
2021/09/07 00:05:42;;;;;;;0.10;0.10;;;19.80;58.80;;;;;;5019719;28;20262;-84
2021/09/07 00:08:10;;;;;;;0.03;0.03;;;19.70;58.50;;;;;;5012082;28;20221;-84
2021/09/07 00:10:38;;;;;;;0.00;0.00;;;19.70;58.50;;;;;;4997080;28;20217;-83
2021/09/07 00:13:05;;;;;;;0.10;0.10;;;19.70;58.50;;;;;;5011118;28;20844;-84
2021/09/07 00:15:33;;;;;;;0.07;0.07;;;19.70;58.50;;;;;;5016870;28;20434;-84
2021/09/07 00:18:01;;;;;;;0.00;0.00;;;19.70;58.50;;;;;;5017155;28;20303;-83
2021/09/07 00:20:28;;;;;;;0.03;0.03;;;19.70;58.40;;;;;;5016751;28;20207;-84
2021/09/07 00:22:55;;;;;;;0.13;0.13;;;19.70;58.40;;;;;;5015830;28;20199;-84
2021/09/07 00:25:22;;;;;;;0.10;0.10;;;19.80;58.50;;;;;;5016681;28;20842;-84
2021/09/07 00:27:49;;;;;;;0.03;0.03;;;19.70;58.70;;;;;;5016132;28;20216;-83
2021/09/07 00:30:16;;;;;;;0.10;0.10;;;19.70;58.10;;;;;;5016754;28;20222;-84
2021/09/07 00:32:44;;;;;;;0.10;0.10;;;19.60;57.90;;;;;;5017817;28;20220;-84
2021/09/07 00:35:12;;;;;;;0.27;0.27;;;19.50;58.00;;;;;;5017658;28;20235;-87
2021/09/07 00:37:42;;;;;;;0.03;0.03;;;19.40;58.00;;;;;;5011507;28;20219;-83
2021/09/07 00:40:11;;;;;;;0.00;0.00;;;19.30;57.80;;;;;;5017173;28;20243;-84
2021/09/07 00:42:39;;;;;;;0.10;0.10;;;19.20;58.00;;;;;;5019093;28;20199;-83
2021/09/07 00:45:08;;;;;;;0.00;0.00;;;19.20;58.30;;;;;;5011932;28;20232;-84
2021/09/07 00:47:36;;;;;;;0.10;0.10;;;19.20;58.50;;;;;;4998834;28;20235;-84
2021/09/07 00:50:04;;;;;;;0.73;0.73;;;19.20;58.50;;;;;;5006105;28;20226;-83
2021/09/07 00:52:32;;;;;;;0.10;0.10;;;19.20;58.80;;;;;;5013514;28;20281;-84
2021/09/07 00:55:00;;;;;;;0.10;0.10;;;19.10;58.90;;;;;;5008172;28;20228;-83
2021/09/07 00:57:29;;;;;;;0.10;0.10;;;19.10;59.00;;;;;;5007276;28;20224;-84
2021/09/07 00:59:56;;;;;;;0.00;0.00;;;19.10;59.10;;;;;;5017047;28;20215;-83
2021/09/07 01:02:24;;;;;;;0.63;0.63;;;19.10;59.10;;;;;;5004769;28;20216;-83
2021/09/07 01:04:51;;;;;;;0.00;0.00;;;19.00;59.20;;;;;;5015609;28;20246;-83
2021/09/07 01:07:19;;;;;;;0.10;0.10;;;19.00;59.20;;;;;;5016684;28;20207;-83
2021/09/07 01:09:47;;;;;;;0.10;0.10;;;18.90;59.80;;;;;;5001023;28;20312;-83
2021/09/07 01:12:14;;;;;;;0.10;0.10;;;18.80;60.00;;;;;;5008612;28;20258;-84
2021/09/07 01:14:42;;;;;;;4.17;0.60;;;18.70;59.30;;;;;;4996722;28;20229;-83
2021/09/07 01:17:14;;;;;;;0.00;0.00;;;18.50;59.50;;;;;;4996861;28;20212;-84
2021/09/07 01:19:43;;;;;;;0.00;0.00;;;18.40;59.80;;;;;;5002443;28;20277;-83
2021/09/07 01:22:10;;;;;;;0.00;0.00;;;18.40;59.90;;;;;;5016399;28;20236;-83
2021/09/07 01:24:37;;;;;;;0.10;0.10;;;18.50;60.00;;;;;;5013842;28;20232;-83
2021/09/07 01:27:05;;;;;;;2.30;0.83;;;18.50;60.00;;;;;;4996381;28;20217;-84
2021/09/07 01:29:34;;;;;;;0.00;0.00;;;18.50;60.00;;;;;;4996933;28;20212;-83
2021/09/07 01:32:03;;;;;;;0.10;0.10;;;18.50;60.10;;;;;;5012941;28;20223;-84
2021/09/07 01:34:30;;;;;;;0.20;0.20;;;18.50;60.30;;;;;;5024477;28;20245;-83
2021/09/07 01:37:00;;;;;;;0.10;0.10;;;18.50;60.80;;;;;;5007979;28;20230;-83
2021/09/07 01:39:28;;;;;;;0.10;0.10;;;18.40;61.30;;;;;;4999785;28;20219;-83
2021/09/07 01:41:55;;;;;;;0.10;0.10;;;18.40;61.30;;;;;;5015618;28;20249;-83
2021/09/07 01:44:23;;;;;;;0.10;0.10;;;18.30;61.30;;;;;;5009907;28;20220;-83
2021/09/07 01:46:51;;;;;;;0.10;0.10;;;18.20;61.40;;;;;;5008483;28;20224;-84
2021/09/07 01:49:19;;;;;;;0.10;0.10;;;18.10;61.40;;;;;;5001233;28;20613;-83
2021/09/07 01:51:47;;;;;;;0.10;0.10;;;18.10;61.50;;;;;;5010013;28;20310;-84
2021/09/07 01:54:15;;;;;;;0.10;0.10;;;18.10;61.40;;;;;;5002529;28;20247;-83
2021/09/07 01:56:43;;;;;;;0.00;0.00;;;18.10;61.30;;;;;;5008561;28;20310;-85
2021/09/07 01:59:10;;;;;;;0.10;0.10;;;18.10;61.40;;;;;;5006442;28;20208;-85
2021/09/07 02:01:37;;;;;;;0.10;0.10;;;18.10;61.60;;;;;;5014956;28;20212;-83
2021/09/07 02:04:05;;;;;;;0.10;0.10;;;18.10;62.00;;;;;;5012722;28;20376;-83
2021/09/07 02:06:32;;;;;;;0.03;0.03;;;18.10;62.20;;;;;;5030386;28;20227;-83
2021/09/07 02:08:59;;;;;;;0.00;0.00;;;18.10;62.30;;;;;;5001947;28;20320;-82
2021/09/07 02:11:26;;;;;;;0.10;0.10;;;18.10;62.30;;;;;;4996204;28;20224;-84
2021/09/07 02:13:53;;;;;;;0.50;0.50;;;18.10;62.30;;;;;;4996703;28;20659;-84
2021/09/07 02:16:20;;;;;;;0.10;0.10;;;18.10;62.20;;;;;;5003761;28;20219;-84
2021/09/07 02:18:47;;;;;;;0.10;0.10;;;18.10;62.20;;;;;;4997381;28;20220;-84
2021/09/07 02:21:14;;;;;;;0.10;0.10;;;18.00;62.20;;;;;;5006137;28;20231;-84
2021/09/07 02:23:41;;;;;;;0.10;0.10;;;18.10;62.30;;;;;;4998516;28;20243;-85
2021/09/07 02:26:08;;;;;;;0.00;0.00;;;18.00;62.30;;;;;;5017179;28;20644;-85
2021/09/07 02:28:35;;;;;;;0.20;0.20;;;18.00;62.30;;;;;;5007560;28;20548;-84
2021/09/07 02:31:02;;;;;;;0.10;0.10;;;18.10;62.50;;;;;;5002223;28;20243;-83
2021/09/07 02:33:32;;;;;;;0.23;0.23;;;18.00;62.50;;;;;;4995877;28;20216;-83
2021/09/07 02:35:59;;;;;;;0.13;0.13;;;18.00;62.60;;;;;;4995724;28;20224;-83
2021/09/07 02:38:26;;;;;;;0.40;0.40;;;18.00;62.80;;;;;;5010008;28;20624;-83
2021/09/07 02:40:57;;;;;;;0.10;0.10;;;18.00;62.90;;;;;;5008074;28;20274;-83
2021/09/07 02:43:25;;;;;;;0.77;0.77;;;18.00;62.90;;;;;;5014920;28;20644;-84
2021/09/07 02:45:53;;;;;;;0.17;0.17;;;17.90;62.80;;;;;;4995347;28;20624;-83
2021/09/07 02:48:20;;;;;;;0.20;0.20;;;17.90;62.90;;;;;;4995717;28;20219;-83
2021/09/07 02:50:47;;;;;;;0.07;0.07;;;17.90;63.10;;;;;;5001752;28;20216;-84
2021/09/07 02:53:15;;;;;;;0.10;0.10;;;17.90;63.20;;;;;;5003082;28;20631;-83
2021/09/07 02:55:42;;;;;;;0.10;0.10;;;17.90;63.40;;;;;;5015588;28;20231;-83
2021/09/07 02:58:09;;;;;;;0.00;0.00;;;17.80;63.70;;;;;;5019824;28;20218;-83
2021/09/07 03:00:36;;;;;;;0.30;0.30;;;17.70;63.30;;;;;;5008796;28;20204;-84
2021/09/07 03:03:04;;;;;;;0.10;0.10;;;17.60;63.00;;;;;;4999889;28;20227;-83
2021/09/07 03:05:31;;;;;;;0.10;0.10;;;17.60;63.60;;;;;;5032174;28;20212;-85
2021/09/07 03:07:58;;;;;;;0.30;0.30;;;17.60;63.70;;;;;;5018751;28;20277;-83
2021/09/07 03:10:26;;;;;;;0.10;0.10;;;17.60;63.80;;;;;;5018790;28;20212;-84
2021/09/07 03:12:54;;;;;;;0.10;0.10;;;17.60;63.60;;;;;;5003170;28;20228;-83
2021/09/07 03:15:25;;;;;;;0.20;0.20;;;17.50;63.70;;;;;;4998889;28;20232;-83
2021/09/07 03:17:52;;;;;;;0.10;0.10;;;17.50;63.90;;;;;;4998979;28;20983;-84
2021/09/07 03:20:19;;;;;;;0.00;0.00;;;17.50;64.30;;;;;;5011943;28;20278;-83
2021/09/07 03:22:47;;;;;;;0.00;0.00;;;17.50;64.40;;;;;;5008643;28;20220;-84
2021/09/07 03:25:14;;;;;;;0.40;0.40;;;17.50;64.50;;;;;;5020148;28;20639;-83
2021/09/07 03:27:41;;;;;;;0.03;0.03;;;17.40;64.20;;;;;;5037983;28;20211;-83
2021/09/07 03:30:09;;;;;;;0.10;0.10;;;17.40;64.30;;;;;;5019072;28;20286;-83
2021/09/07 03:32:37;;;;;;;0.23;0.23;;;17.40;64.40;;;;;;5017894;28;20223;-83
2021/09/07 03:35:04;;;;;;;0.10;0.10;;;17.40;64.30;;;;;;5010120;28;20244;-84
2021/09/07 03:37:32;;;;;;;0.10;0.10;;;17.40;64.30;;;;;;5014467;28;20208;-83
2021/09/07 03:39:59;;;;;;;0.10;0.10;;;17.40;64.20;;;;;;5018079;28;20267;-83
2021/09/07 03:42:26;;;;;;;0.37;0.30;;;17.40;64.20;;;;;;5017942;28;20215;-83
2021/09/07 03:44:53;;;;;;;0.00;0.00;;;17.40;64.30;;;;;;5017627;28;20225;-84
2021/09/07 03:47:20;;;;;;;0.67;0.67;;;17.40;64.30;;;;;;5000188;28;20617;-84
2021/09/07 03:49:48;;;;;;;0.10;0.10;;;17.40;64.40;;;;;;5020244;28;20280;-83
2021/09/07 03:52:15;;;;;;;0.10;0.10;;;17.40;64.30;;;;;;5025103;28;20212;-83
2021/09/07 03:54:43;;;;;;;0.10;0.10;;;17.40;64.30;;;;;;5009359;28;20232;-83
2021/09/07 03:57:10;;;;;;;0.10;0.10;;;17.40;64.40;;;;;;5013813;28;20627;-83
2021/09/07 03:59:37;;;;;;;0.10;0.10;;;17.30;64.50;;;;;;5018662;28;20219;-84
2021/09/07 04:02:04;;;;;;;0.00;0.00;;;17.30;64.50;;;;;;4998571;28;20220;-83
2021/09/07 04:04:32;;;;;;;0.10;0.10;;;17.30;64.60;;;;;;5017114;28;20219;-83
2021/09/07 04:06:59;;;;;;;0.10;0.10;;;17.30;64.60;;;;;;5017232;28;20223;-83
2021/09/07 04:09:26;;;;;;;0.10;0.10;;;17.30;64.60;;;;;;5016820;28;20220;-83
2021/09/07 04:11:53;;;;;;;0.10;0.10;;;17.30;64.70;;;;;;4997597;28;20209;-83
2021/09/07 04:14:20;;;;;;;0.03;0.03;;;17.20;64.70;;;;;;4997945;28;20224;-83
2021/09/07 04:16:48;;;;;;;0.10;0.10;;;17.20;64.80;;;;;;5003101;28;20219;-83
2021/09/07 04:19:15;;;;;;;0.10;0.10;;;17.10;65.00;;;;;;5009244;28;20663;-83
2021/09/07 04:21:42;;;;;;;0.10;0.10;;;17.00;65.40;;;;;;5006574;28;20629;-83
2021/09/07 04:24:09;;;;;;;0.40;0.40;;;17.00;65.60;;;;;;4998937;28;20219;-83
2021/09/07 04:26:36;;;;;;;0.00;0.00;;;17.00;65.50;;;;;;5004876;28;20259;-84
2021/09/07 04:29:03;;;;;;;0.10;0.10;;;17.00;65.50;;;;;;5010765;28;20212;-83
2021/09/07 04:31:31;;;;;;;0.10;0.10;;;17.00;65.40;;;;;;5014703;28;20526;-83
2021/09/07 04:33:59;;;;;;;0.33;0.33;;;17.00;65.40;;;;;;5004312;28;20227;-83
2021/09/07 04:36:26;;;;;;;0.77;0.67;;;17.10;65.60;;;;;;5009401;28;20243;-83
2021/09/07 04:38:53;;;;;;;0.03;0.03;;;17.00;65.70;;;;;;5017800;28;20309;-83
2021/09/07 04:41:22;;;;;;;0.77;0.30;;;17.00;65.70;;;;;;5017199;28;20258;-83
2021/09/07 04:43:49;;;;;;;0.10;0.10;;;17.00;65.70;;;;;;5010109;28;20213;-84
2021/09/07 04:46:17;;;;;;;0.10;0.10;;;17.00;65.70;;;;;;5017398;28;20208;-83
2021/09/07 04:48:46;;;;;;;0.47;0.47;;;17.10;65.70;;;;;;4999974;28;20230;-83
2021/09/07 04:51:12;;;;;;;0.10;0.10;;;17.00;65.80;;;;;;5013670;28;20564;-83
2021/09/07 04:53:40;;;;;;;0.10;0.10;;;17.00;65.80;;;;;;5011772;28;20559;-83
2021/09/07 04:56:07;;;;;;;0.10;0.10;;;17.00;65.80;;;;;;5013459;28;20242;-84
2021/09/07 04:58:36;;;;;;;0.10;0.10;;;17.00;65.80;;;;;;5021715;28;20298;-83
2021/09/07 05:01:03;;;;;;;0.13;0.13;;;17.00;65.60;;;;;;5031971;28;20256;-84
2021/09/07 05:03:31;;;;;;;0.10;0.10;;;17.00;65.40;;;;;;5000256;28;20220;-84
2021/09/07 05:06:01;;;;;;;0.10;0.10;;;17.10;65.40;;;;;;5009733;28;20228;-83
2021/09/07 05:08:29;;;;;;;0.47;0.47;;;17.10;65.40;;;;;;5014604;28;20307;-85
2021/09/07 05:10:56;;;;;;;0.10;0.10;;;17.10;65.50;;;;;;5004922;28;20220;-84
2021/09/07 05:13:24;;;;;;;0.00;0.00;;;17.20;65.50;;;;;;5007501;28;20215;-83
2021/09/07 05:15:51;;;;;;;0.10;0.10;;;17.20;65.40;;;;;;5016986;28;20301;-83
2021/09/07 05:18:19;;;;;;;0.40;0.40;;;17.30;65.40;;;;;;5016728;28;20215;-83
2021/09/07 05:20:45;;;;;;;0.10;0.10;;;17.30;65.50;;;;;;5000510;28;20540;-84
2021/09/07 05:23:13;;;;;;;0.83;0.83;;;17.50;65.50;;;;;;5011905;28;20208;-84
2021/09/07 05:25:40;;;;;;;0.10;0.10;;;17.60;65.20;;;;;;5010946;28;20230;-83
2021/09/07 05:28:07;;;;;;;0.13;0.13;;;17.80;64.60;;;;;;5016429;28;20223;-84
2021/09/07 05:30:35;;;;;;;0.10;0.10;;;18.00;64.00;;;;;;5005841;28;20224;-83
2021/09/07 05:33:02;;;;;;;0.10;0.10;;;18.10;63.60;;;;;;5008751;28;20215;-83
2021/09/07 05:35:29;;;;;;;0.10;0.10;;;18.20;63.40;;;;;;5002175;28;20735;-83
2021/09/07 05:37:56;;;;;;;0.13;0.13;;;18.20;63.10;;;;;;5013696;28;20803;-84
2021/09/07 05:40:23;;;;;;;0.13;0.13;;;18.30;63.00;;;;;;5016080;28;20254;-83
2021/09/07 05:42:50;;;;;;;0.10;0.10;;;18.40;63.00;;;;;;5016625;28;20216;-84
2021/09/07 05:45:18;;;;;;;0.10;0.10;;;18.50;62.80;;;;;;5015343;28;20211;-84
2021/09/07 05:47:45;;;;;;;0.00;0.00;;;18.70;62.50;;;;;;5012128;28;20227;-83
2021/09/07 05:50:14;;;;;;;0.10;0.10;;;18.80;62.20;;;;;;5016278;28;20215;-84
2021/09/07 05:52:43;;;;;;;0.10;0.10;;;19.00;62.10;;;;;;5012617;28;20234;-84
2021/09/07 05:55:11;;;;;;;0.10;0.10;;;19.10;61.80;;;;;;5005316;28;20247;-84
2021/09/07 05:57:39;;;;;;;0.00;0.00;;;19.30;61.70;;;;;;5011996;28;20219;-85
2021/09/07 06:00:07;;;;;;;0.20;0.20;;;19.50;61.50;;;;;;5002010;28;20220;-84
2021/09/07 06:02:35;;;;;;;0.10;0.10;;;19.70;61.30;;;;;;5001191;28;20667;-85
2021/09/07 06:05:04;;;;;;;0.00;0.00;;;19.90;61.00;;;;;;5006910;28;20216;-87
2021/09/07 06:07:31;;;;;;;0.67;0.67;;;20.10;60.60;;;;;;5008420;28;20221;-85
2021/09/07 06:09:59;;;;;;;0.10;0.10;;;20.40;60.10;;;;;;5003884;28;20219;-84
2021/09/07 06:12:26;;;;;;;0.10;0.10;;;20.50;59.60;;;;;;5011689;28;20216;-84
2021/09/07 06:14:53;;;;;;;0.20;0.20;;;20.80;59.40;;;;;;5007612;28;20236;-84
2021/09/07 06:17:21;;;;;;;0.03;0.03;;;21.00;58.90;;;;;;5003737;28;20213;-84
2021/09/07 06:19:51;;;;;;;0.10;0.10;;;21.20;58.50;;;;;;4995720;28;20216;-84
2021/09/07 06:22:18;;;;;;;0.20;0.20;;;21.40;58.00;;;;;;5003073;28;20647;-83
2021/09/07 06:24:45;;;;;;;0.10;0.10;;;21.60;57.40;;;;;;4995279;28;20204;-83
2021/09/07 06:27:12;;;;;;;0.00;0.00;;;21.70;55.90;;;;;;5013255;28;20214;-85
2021/09/07 06:29:40;;;;;;;0.00;0.00;;;21.60;56.10;;;;;;5014311;28;20307;-84
2021/09/07 06:32:13;;;;;;;6.13;1.90;;;21.70;56.10;;;;;;5007954;28;20223;-84
2021/09/07 06:35:05;;;;;;;0.00;0.00;;;21.90;56.10;;;;;;4998179;28;20231;-85
2021/09/07 06:38:20;;;;;;;0.00;0.00;;;22.10;55.80;;;;;;4964944;28;20212;-84
2021/09/07 06:41:06;;;;;;;0.10;0.10;;;22.20;55.50;;;;;;4984009;28;20331;-85
2021/09/07 06:43:47;;;;;;;0.17;0.17;;;22.40;55.20;;;;;;5006529;28;20255;-84
2021/09/07 06:46:14;;;;;;;0.10;0.10;;;22.50;54.90;;;;;;5015285;28;20221;-86
2021/09/07 06:48:42;;;;;;;0.10;0.10;;;22.50;54.60;;;;;;5015281;28;20212;-84
2021/09/07 06:51:09;;;;;;;0.40;0.40;;;22.60;54.30;;;;;;5011680;28;20227;-84
2021/09/07 06:53:36;;;;;;;0.20;0.20;;;22.70;54.20;;;;;;4996350;28;20649;-84
2021/09/07 06:56:04;;;;;;;0.10;0.10;;;22.70;54.00;;;;;;5002518;28;20311;-84
2021/09/07 06:58:31;;;;;;;1.10;0.43;;;22.80;53.90;;;;;;5006334;28;20255;-85
2021/09/07 07:00:58;;;;;;;0.10;0.10;;;22.90;53.80;;;;;;5004670;28;20207;-85
2021/09/07 07:03:25;;;;;;;0.10;0.10;;;22.90;53.30;;;;;;5016812;28;20236;-86
2021/09/07 07:05:53;;;;;;;0.20;0.20;;;22.90;53.10;;;;;;4994300;28;20215;-85
2021/09/07 07:08:21;;;;;;;0.10;0.10;;;22.90;53.40;;;;;;5011121;28;20213;-85
2021/09/07 07:10:48;;;;;;;0.10;0.10;;;23.00;53.40;;;;;;5000255;28;20264;-85
2021/09/07 07:13:16;;;;;;;0.10;0.10;;;23.00;53.60;;;;;;4995442;28;20539;-86
2021/09/07 07:15:43;;;;;;;0.00;0.00;;;23.10;53.90;;;;;;4995399;28;20243;-85
2021/09/07 07:18:11;;;;;;;2.87;0.57;;;23.00;53.70;;;;;;4995128;28;20219;-85
2021/09/07 07:20:38;;;;;;;0.00;0.00;;;23.00;54.10;;;;;;4994979;28;20212;-84
2021/09/07 07:23:05;;;;;;;0.10;0.10;;;23.10;54.30;;;;;;5009809;28;20242;-85
2021/09/07 07:25:33;;;;;;;0.10;0.10;;;23.20;54.20;;;;;;5014320;28;20211;-84
2021/09/07 07:28:00;;;;;;;1.57;1.47;;;23.30;54.00;;;;;;5001260;28;20213;-85
2021/09/07 07:30:31;;;;;;;0.10;0.10;;;23.40;53.90;;;;;;4995442;28;20216;-85
2021/09/07 07:32:59;;;;;;;0.13;0.13;;;23.50;53.80;;;;;;4995704;28;20295;-85
2021/09/07 07:35:27;;;;;;;0.10;0.10;;;23.60;53.60;;;;;;4991537;28;20251;-84
2021/09/07 07:37:56;;;;;;;1.00;0.90;;;23.70;53.60;;;;;;4994274;28;20300;-85
2021/09/07 07:40:24;;;;;;;0.10;0.10;;;23.90;53.70;;;;;;4997815;28;20676;-84
2021/09/07 07:42:51;;;;;;;0.10;0.10;;;24.10;53.70;;;;;;5008209;28;20213;-84
2021/09/07 07:45:19;;;;;;;32.27;1.70;;;24.30;53.60;;;;;;4995064;28;20217;-85
2021/09/07 07:47:46;;;;;;;0.10;0.10;;;24.50;53.30;;;;;;4995379;28;20272;-84
2021/09/07 07:50:14;;;;;;;0.30;0.30;;;24.70;53.10;;;;;;5005531;28;20221;-85
2021/09/07 07:52:41;;;;;;;0.10;0.10;;;24.90;52.60;;;;;;4997667;28;20246;-85
2021/09/07 07:55:09;;;;;;;0.13;0.13;;;25.10;52.40;;;;;;5014377;28;20219;-84
2021/09/07 07:57:36;;;;;;;0.30;0.30;;;25.20;52.10;;;;;;5014320;28;20263;-84
2021/09/07 08:00:05;;;;;;;0.10;0.10;;;25.30;52.00;;;;;;5002305;28;20212;-84
2021/09/07 08:02:34;;;;;;;0.10;0.10;;;25.60;51.90;;;;;;4998629;28;20213;-84
2021/09/07 08:05:03;;;;;;;0.10;0.10;;;25.80;51.60;;;;;;4979009;28;20209;-85
2021/09/07 08:07:30;;;;;;;0.10;0.10;;;26.10;51.20;;;;;;4991507;28;20221;-84
2021/09/07 08:09:57;;;;;;;0.10;0.10;;;26.20;51.00;;;;;;5014134;28;20216;-85
2021/09/07 08:12:25;;;;;;;0.10;0.10;;;26.30;50.50;;;;;;5003553;28;20213;-84
2021/09/07 08:14:53;;;;;;;0.20;0.20;;;26.50;50.50;;;;;;4993796;28;20692;-85
2021/09/07 08:17:20;;;;;;;0.30;0.30;;;26.60;50.10;;;;;;5017325;28;20314;-84
2021/09/07 08:19:47;;;;;;;0.10;0.10;;;26.80;49.80;;;;;;5017270;28;20216;-83
2021/09/07 08:22:16;;;;;;;0.40;0.40;;;26.80;48.50;;;;;;5009884;28;20271;-84
2021/09/07 08:24:43;;;;;;;0.10;0.10;;;26.70;49.20;;;;;;5013868;28;20217;-84
2021/09/07 08:27:11;;;;;;;0.10;0.10;;;26.80;49.30;;;;;;5013332;28;20656;-84
2021/09/07 08:29:38;;;;;;;0.10;0.10;;;26.90;49.20;;;;;;5013353;28;20222;-85
2021/09/07 08:32:08;;;;;;;0.13;0.13;;;27.00;48.70;;;;;;5009263;28;20228;-85
2021/09/07 08:34:35;;;;;;;0.00;0.00;;;27.30;48.60;;;;;;5013021;28;20223;-85
2021/09/07 08:37:03;;;;;;;0.00;0.00;;;27.60;48.40;;;;;;5007012;28;20631;-84
2021/09/07 08:39:31;;;;;;;0.20;0.20;;;27.70;47.80;;;;;;5003997;28;20223;-86
2021/09/07 08:42:00;;;;;;;0.00;0.00;;;27.90;47.00;;;;;;5016270;28;20270;-84
2021/09/07 08:44:28;;;;;;;0.00;0.00;;;28.00;46.90;;;;;;5004665;28;20274;-85
2021/09/07 08:46:55;;;;;;;0.00;0.00;;;28.20;46.70;;;;;;5012876;28;20216;-84
2021/09/07 08:49:22;;;;;;;0.17;0.17;;;28.50;46.50;;;;;;5011976;28;20699;-83
2021/09/07 08:51:49;;;;;;;0.10;0.10;;;28.80;46.20;;;;;;5006386;28;20244;-84
2021/09/07 08:54:18;;;;;;;0.10;0.10;;;29.00;46.10;;;;;;5013026;28;20216;-85
2021/09/07 08:56:45;;;;;;;0.73;0.73;;;29.20;45.40;;;;;;5003989;28;20571;-85
2021/09/07 08:59:14;;;;;;;0.10;0.10;;;29.30;45.30;;;;;;4977042;28;20209;-84
2021/09/07 09:01:47;;;;;;;0.93;0.93;;;29.30;45.00;;;;;;4995788;28;20222;-84
2021/09/07 09:04:34;;;;;;;0.10;0.10;;;29.40;45.00;;;;;;5030796;28;20599;-85
2021/09/07 09:07:01;;;;;;;0.00;0.00;;;29.40;44.70;;;;;;4997475;28;20225;-86
2021/09/07 09:09:39;;;;;;;0.47;0.47;;;29.50;44.80;;;;;;4983629;28;20571;-85
2021/09/07 09:12:08;;;;;;;0.17;0.17;;;29.50;44.20;;;;;;5012519;28;20207;-86
2021/09/07 09:14:41;;;;;;;0.13;0.13;;;29.40;44.50;;;;;;4993249;28;20265;-85
2021/09/07 09:17:17;;;;;;;0.00;0.00;;;29.20;44.30;;;;;;4989464;28;20240;-86
2021/09/07 09:19:51;;;;;;;0.30;0.30;;;29.00;43.80;;;;;;4992988;28;20541;-84
2021/09/07 09:22:21;;;;;;;0.10;0.10;;;28.80;43.00;;;;;;4993278;28;20232;-85
2021/09/07 09:24:49;;;;;;;0.10;0.10;;;28.80;43.30;;;;;;5013218;28;20290;-85
2021/09/07 09:27:17;;;;;;;1.03;1.03;;;28.70;43.10;;;;;;5012516;28;20225;-86
2021/09/07 09:29:45;;;;;;;0.00;0.00;;;28.90;43.00;;;;;;4996542;28;20228;-85
2021/09/07 09:32:13;;;;;;;0.87;0.87;;;29.20;43.10;;;;;;4996875;28;20232;-85
2021/09/07 09:34:42;;;;;;;0.10;0.10;;;29.50;42.80;;;;;;5028261;28;20247;-85
2021/09/07 09:37:13;;;;;;;0.10;0.10;;;29.70;42.20;;;;;;5006727;28;20295;-86
2021/09/07 09:39:50;;;;;;;0.47;0.47;;;30.00;41.20;;;;;;4995759;28;20233;-85
2021/09/07 09:42:28;;;;;;;0.10;0.10;;;29.90;41.50;;;;;;4993935;28;20240;-86
2021/09/07 09:45:05;;;;;;;0.10;0.10;;;29.70;41.50;;;;;;4984479;28;20243;-85
2021/09/07 09:47:39;;;;;;;0.07;0.07;;;29.80;41.70;;;;;;5012070;28;20307;-83
2021/09/07 09:50:08;;;;;;;0.00;0.00;;;29.90;41.80;;;;;;5001640;28;20208;-84
2021/09/07 09:52:38;;;;;;;0.10;0.10;;;30.10;40.20;;;;;;5015770;28;20678;-85
2021/09/07 09:55:07;;;;;;;0.10;0.10;;;30.30;39.00;;;;;;4995685;28;20246;-87
2021/09/07 09:57:37;;;;;;;0.60;0.27;;;30.20;37.90;;;;;;4995895;28;20236;-85
2021/09/07 10:00:06;;;;;;;0.20;0.20;;;30.10;38.00;;;;;;5012395;28;20220;-85
2021/09/07 10:02:33;;;;;;;0.00;0.00;;;30.00;36.70;;;;;;4993264;28;20216;-84
2021/09/07 10:05:02;;;;;;;0.17;0.17;;;29.80;37.40;;;;;;5010716;28;20212;-86
2021/09/07 10:07:30;;;;;;;0.00;0.00;;;29.70;37.60;;;;;;5011964;28;20228;-86
2021/09/07 10:09:58;;;;;;;0.10;0.10;;;29.70;37.00;;;;;;5020050;28;20216;-87
2021/09/07 10:12:54;;;;;;;0.10;0.10;;;29.70;36.70;;;;;;5011474;28;20652;-86
2021/09/07 10:24:15;;;;;;;0.40;0.40;;;30.20;35.70;;;;;;4996804;28;20239;-86
2021/09/07 10:26:38;;;;;;;1.93;0.47;;;30.50;34.90;;;;;;4977054;28;20243;-85
2021/09/07 10:29:06;;;;;;;0.10;0.10;;;30.70;34.70;;;;;;5003161;28;20249;-83
2021/09/07 10:31:49;;;;;;;0.10;0.10;;;30.80;34.20;;;;;;4996198;28;20213;-85
2021/09/07 10:34:25;;;;;;;0.60;0.60;;;30.80;33.50;;;;;;4975996;28;20243;-85
2021/09/07 10:37:09;;;;;;;0.10;0.10;;;30.80;32.60;;;;;;5007466;28;20311;-85
2021/09/07 10:39:44;;;;;;;0.00;0.00;;;30.80;33.10;;;;;;4995394;28;20212;-87
2021/09/07 10:42:34;;;;;;;0.07;0.07;;;30.70;33.00;;;;;;4995230;28;20204;-84
2021/09/07 10:45:02;;;;;;;1.13;1.13;;;30.60;32.90;;;;;;4995252;28;20212;-84
2021/09/07 10:47:43;;;;;;;0.33;0.33;;;30.50;32.80;;;;;;4995643;28;20859;-85
2021/09/07 10:50:11;;;;;;;0.00;0.00;;;30.20;33.40;;;;;;4995364;28;20208;-85
2021/09/07 10:52:38;;;;;;;0.00;0.00;;;30.10;33.70;;;;;;4993575;28;20232;-85
2021/09/07 10:55:11;;;;;;;0.07;0.07;;;29.90;34.30;;;;;;5011395;28;20224;-85
2021/09/07 10:57:39;;;;;;;0.77;0.30;;;29.80;34.40;;;;;;5011143;28;20232;-83
2021/09/07 11:00:22;;;;;;;0.00;0.00;;;29.70;35.00;;;;;;5011549;28;20696;-85
2021/09/07 11:02:49;;;;;;;0.30;0.30;;;29.60;34.40;;;;;;5011285;28;20208;-84
2021/09/07 11:05:19;;;;;;;0.40;0.40;;;29.40;34.20;;;;;;5011050;28;20232;-86
2021/09/07 11:07:48;;;;;;;0.20;0.20;;;29.30;34.60;;;;;;5011809;28;20259;-85
2021/09/07 11:10:18;;;;;;;0.67;0.67;;;29.30;34.60;;;;;;5003349;28;20216;-85
2021/09/07 11:13:00;;;;;;;0.30;0.30;;;29.40;34.00;;;;;;5008468;28;20643;-85
2021/09/07 11:15:31;;;;;;;0.73;0.60;;;29.50;34.00;;;;;;4998897;28;20212;-86
2021/09/07 11:18:09;;;;;;;0.03;0.03;;;29.90;33.90;;;;;;4999031;28;20251;-86
2021/09/07 11:20:44;;;;;;;0.00;0.00;;;30.20;33.50;;;;;;4999042;28;20222;-87
2021/09/07 11:23:16;;;;;;;0.00;0.00;;;30.30;33.20;;;;;;4998689;28;20299;-84
2021/09/07 11:25:59;;;;;;;0.17;0.17;;;30.20;32.50;;;;;;5007040;28;20300;-84
2021/09/07 11:28:28;;;;;;;0.03;0.03;;;30.20;32.70;;;;;;4979290;28;20260;-84
2021/09/07 11:30:56;;;;;;;0.20;0.20;;;30.30;32.00;;;;;;4995482;28;20209;-85
2021/09/07 11:33:31;;;;;;;0.30;0.30;;;30.60;32.00;;;;;;5007071;28;20216;-84
2021/09/07 11:36:05;;;;;;;0.10;0.10;;;30.70;31.50;;;;;;4997159;28;20208;-84
2021/09/07 11:38:35;;;;;;;0.30;0.30;;;30.80;31.60;;;;;;4995024;28;20293;-85
2021/09/07 11:41:14;;;;;;;0.10;0.10;;;31.00;31.20;;;;;;4998255;28;20322;-85
2021/09/07 11:43:44;;;;;;;0.57;0.57;;;31.10;31.00;;;;;;5014871;28;20632;-84
2021/09/07 11:46:20;;;;;;;0.57;0.57;;;31.20;30.50;;;;;;5031839;28;20203;-84
2021/09/07 11:48:55;;;;;;;0.07;0.07;;;31.20;30.30;;;;;;5018086;28;20273;-83
2021/09/07 11:51:28;;;;;;;0.07;0.07;;;31.30;30.60;;;;;;5005803;28;20243;-84
2021/09/07 11:53:58;;;;;;;0.00;0.00;;;31.30;30.40;;;;;;4992554;28;20225;-85
2021/09/07 11:56:28;;;;;;;0.13;0.13;;;31.30;30.90;;;;;;5011383;28;20224;-83
2021/09/07 11:59:13;;;;;;;0.10;0.10;;;31.40;30.70;;;;;;5009952;28;20209;-84
2021/09/07 12:01:52;;;;;;;3.50;1.43;;;31.40;29.70;;;;;;5014263;28;20299;-85
2021/09/07 12:04:21;;;;;;;0.10;0.10;;;31.30;30.20;;;;;;4994916;28;20209;-84
2021/09/07 12:06:51;;;;;;;0.27;0.27;;;31.30;30.50;;;;;;5008237;28;20293;-85
2021/09/07 12:09:23;;;;;;;0.10;0.10;;;31.30;30.80;;;;;;5017598;28;20216;-85
2021/09/07 12:12:03;;;;;;;0.00;0.00;;;31.40;30.60;;;;;;5017685;28;20297;-84
2021/09/07 12:14:44;;;;;;;0.00;0.00;;;31.40;30.40;;;;;;5001407;28;20223;-83
2021/09/07 12:17:16;;;;;;;0.57;0.57;;;31.50;30.90;;;;;;5014088;28;20229;-86
2021/09/07 12:19:49;;;;;;;0.00;0.00;;;31.60;30.80;;;;;;5014342;28;20211;-86
2021/09/07 12:22:23;;;;;;;0.63;0.63;;;31.60;31.10;;;;;;5013779;28;20212;-85
2021/09/07 12:25:18;;;;;;;0.00;0.00;;;31.50;30.60;;;;;;5013511;28;20212;-84
2021/09/07 12:27:53;;;;;;;0.20;0.20;;;31.40;30.30;;;;;;4996230;28;20299;-84
2021/09/07 12:30:25;;;;;;;0.57;0.57;;;31.30;30.70;;;;;;5014156;28;20193;-85
2021/09/07 12:33:00;;;;;;;0.10;0.10;;;31.30;30.40;;;;;;4994232;28;20597;-85
2021/09/07 12:35:27;;;;;;;0.10;0.10;;;31.30;31.20;;;;;;4991540;28;20227;-86
2021/09/07 12:37:54;;;;;;;0.00;0.00;;;31.30;31.10;;;;;;5013427;28;20233;-86
2021/09/07 12:40:21;;;;;;;0.40;0.40;;;31.20;30.80;;;;;;4994639;28;20248;-86
2021/09/07 12:42:58;;;;;;;0.23;0.23;;;31.20;30.80;;;;;;4993428;28;20228;-86
2021/09/07 12:45:28;;;;;;;0.00;0.00;;;31.00;31.20;;;;;;4977880;28;20209;-85
2021/09/07 12:47:56;;;;;;;3.23;0.40;;;31.00;31.40;;;;;;4999571;28;20252;-84
2021/09/07 12:50:24;;;;;;;0.60;0.60;;;31.10;31.20;;;;;;5014297;28;20247;-84
2021/09/07 12:52:51;;;;;;;0.10;0.10;;;31.20;31.30;;;;;;4993122;28;20229;-85
2021/09/07 12:55:19;;;;;;;0.30;0.30;;;31.30;31.50;;;;;;4994706;28;20645;-86
2021/09/07 12:57:46;;;;;;;0.10;0.10;;;31.30;31.50;;;;;;5000968;28;20232;-83
2021/09/07 13:00:13;;;;;;;0.00;0.00;;;31.40;31.70;;;;;;5013366;28;20227;-83
2021/09/07 13:02:40;;;;;;;0.00;0.00;;;31.50;31.80;;;;;;5012992;28;20732;-83
2021/09/07 13:05:08;;;;;;;0.27;0.27;;;31.60;31.40;;;;;;5012716;28;20212;-83
2021/09/07 13:07:36;;;;;;;0.13;0.13;;;31.70;31.40;;;;;;4995963;28;20224;-84